createdAt,value
2023-05-02T00:01:29.168Z,2.10
2023-05-02T00:03:55.943Z,2.45
2023-05-02T00:06:22.782Z,2.30
2023-05-02T00:08:49.597Z,2.38
2023-05-02T00:11:17.402Z,2.70
2023-05-02T00:13:43.921Z,2.55
2023-05-02T00:16:10.423Z,1.63
2023-05-02T00:18:36.909Z,1.77
2023-05-02T00:21:03.552Z,2.53
2023-05-02T00:23:30.033Z,2.22
2023-05-02T00:25:56.514Z,2.90
2023-05-02T00:28:24.240Z,1.98
2023-05-02T00:30:50.765Z,2.40
2023-05-02T00:33:17.248Z,3.72
2023-05-02T00:35:43.773Z,1.50
2023-05-02T00:38:10.544Z,2.13
2023-05-02T00:40:43.726Z,2.50
2023-05-02T00:43:10.218Z,1.25
2023-05-02T00:45:38.303Z,1.98
2023-05-02T00:48:05.450Z,1.38
2023-05-02T00:50:34.012Z,3.13
2023-05-02T00:53:00.758Z,1.50
2023-05-02T00:55:27.488Z,1.90
2023-05-02T00:57:54.044Z,2.45
2023-05-02T01:00:21.168Z,1.90
2023-05-02T01:02:58.031Z,1.23
2023-05-02T01:05:28.132Z,2.58
2023-05-02T01:08:03.141Z,1.40
2023-05-02T01:10:41.948Z,1.42
2023-05-02T01:13:10.521Z,1.65
2023-05-02T01:15:39.378Z,1.33
2023-05-02T01:18:09.818Z,1.60
2023-05-02T01:20:39.074Z,1.55
2023-05-02T01:23:14.065Z,2.88
2023-05-02T01:25:55.452Z,1.15
2023-05-02T01:28:35.291Z,1.92
2023-05-02T01:31:04.627Z,2.38
2023-05-02T01:33:33.850Z,1.25
2023-05-02T01:36:01.716Z,1.45
2023-05-02T01:38:29.936Z,1.08
2023-05-02T01:40:58.190Z,1.17
2023-05-02T01:43:25.974Z,1.40
2023-05-02T01:45:55.516Z,1.15
2023-05-02T01:48:24.876Z,1.20
2023-05-02T01:50:52.198Z,2.00
2023-05-02T01:53:18.928Z,1.20
2023-05-02T01:55:46.966Z,1.35
2023-05-02T01:58:15.069Z,1.40
2023-05-02T02:00:42.597Z,1.38
2023-05-02T02:03:10.156Z,1.10
2023-05-02T02:05:39.990Z,1.10
2023-05-02T02:08:06.620Z,1.50
2023-05-02T02:10:40.268Z,1.20
2023-05-02T02:13:13.537Z,1.35
2023-05-02T02:15:42.123Z,1.45
2023-05-02T02:18:13.326Z,0.75
2023-05-02T02:20:44.111Z,1.00
2023-05-02T02:23:12.008Z,1.48
2023-05-02T02:25:39.410Z,1.00
2023-05-02T02:28:07.054Z,1.40
2023-05-02T02:30:33.644Z,1.02
2023-05-02T02:33:00.192Z,0.95
2023-05-02T02:35:31.380Z,0.85
2023-05-02T02:38:07.632Z,1.10
2023-05-02T02:40:40.889Z,1.13
2023-05-02T02:43:13.048Z,0.80
2023-05-02T02:45:51.070Z,1.08
2023-05-02T02:48:25.528Z,0.80
2023-05-02T02:51:03.900Z,0.60
2023-05-02T02:53:42.200Z,0.73
2023-05-02T02:56:15.666Z,1.25
2023-05-02T02:58:53.322Z,0.77
2023-05-02T03:01:21.211Z,0.60
2023-05-02T03:03:49.344Z,0.68
2023-05-02T03:06:16.168Z,0.95
2023-05-02T03:08:44.764Z,0.82
2023-05-02T03:11:11.440Z,0.95
2023-05-02T03:13:37.990Z,0.80
2023-05-02T03:16:29.636Z,0.80
2023-05-02T03:18:56.409Z,1.00
2023-05-02T03:21:22.874Z,0.80
2023-05-02T03:23:50.717Z,0.85
2023-05-02T03:26:17.561Z,0.90
2023-05-02T03:28:44.296Z,1.15
2023-05-02T03:31:10.763Z,0.63
2023-05-02T03:33:37.233Z,0.68
2023-05-02T03:36:04.024Z,0.80
2023-05-02T03:38:30.599Z,0.80
2023-05-02T03:40:58.446Z,0.57
2023-05-02T03:43:24.956Z,1.38
2023-05-02T03:45:51.607Z,0.77
2023-05-02T03:48:18.228Z,1.02
2023-05-02T03:50:44.691Z,0.60
2023-05-02T03:53:11.220Z,1.15
2023-05-02T03:55:39.524Z,1.08
2023-05-02T03:58:08.334Z,0.70
2023-05-02T04:00:34.785Z,0.68
2023-05-02T04:03:01.267Z,0.65
2023-05-02T04:05:27.849Z,0.70
2023-05-02T04:07:54.537Z,0.60
2023-05-02T04:10:21.001Z,0.90
2023-05-02T04:12:47.507Z,0.80
2023-05-02T04:15:15.378Z,0.93
2023-05-02T04:17:41.934Z,0.63
2023-05-02T04:20:09.309Z,0.57
2023-05-02T04:22:35.844Z,0.75
2023-05-02T04:25:02.274Z,0.50
2023-05-02T04:27:28.743Z,0.70
2023-05-02T04:29:55.292Z,0.52
2023-05-02T04:32:23.678Z,0.50
2023-05-02T04:34:50.250Z,0.85
2023-05-02T04:37:16.766Z,0.35
2023-05-02T04:39:43.229Z,40.25
2023-05-02T04:42:09.685Z,55.88
2023-05-02T04:44:36.165Z,22.17
2023-05-02T04:47:02.585Z,41.22
2023-05-02T04:49:30.335Z,58.20
2023-05-02T04:51:56.954Z,29.10
2023-05-02T04:54:23.500Z,25.52
2023-05-02T04:56:49.950Z,24.92
2023-05-02T04:59:16.470Z,21.40
2023-05-02T05:01:44.096Z,23.45
2023-05-02T05:04:10.878Z,21.95
2023-05-02T05:06:38.896Z,19.88
2023-05-02T05:09:05.407Z,16.75
2023-05-02T05:11:31.879Z,20.92
2023-05-02T05:13:58.330Z,14.38
2023-05-02T05:16:24.779Z,10.07
2023-05-02T05:18:51.353Z,15.05
2023-05-02T05:21:17.796Z,6.72
2023-05-02T05:23:45.641Z,9.98
2023-05-02T05:26:13.246Z,8.98
2023-05-02T05:28:39.692Z,10.02
2023-05-02T05:31:06.376Z,7.40
2023-05-02T05:33:33.065Z,5.82
2023-05-02T05:36:04.044Z,4.78
2023-05-02T05:38:30.577Z,8.50
2023-05-02T05:40:58.349Z,5.03
2023-05-02T05:43:24.810Z,9.13
2023-05-02T05:45:51.868Z,6.25
2023-05-02T05:48:18.438Z,5.72
2023-05-02T05:50:45.198Z,4.35
2023-05-02T05:53:11.665Z,3.92
2023-05-02T05:55:39.619Z,5.22
2023-05-02T05:58:08.808Z,7.20
2023-05-02T06:00:35.319Z,2.90
2023-05-02T06:03:02.215Z,4.88
2023-05-02T06:05:29.088Z,3.47
2023-05-02T06:07:55.753Z,2.65
2023-05-02T06:10:23.009Z,3.42
2023-05-02T06:12:49.579Z,2.40
2023-05-02T06:15:17.710Z,5.18
2023-05-02T06:17:44.533Z,4.80
2023-05-02T06:20:11.629Z,8.90
2023-05-02T06:22:38.199Z,5.10
2023-05-02T06:25:05.328Z,7.88
2023-05-02T06:27:33.656Z,6.97
2023-05-02T06:30:00.755Z,8.48
2023-05-02T06:32:31.689Z,8.43
2023-05-02T06:34:58.265Z,18.33
2023-05-02T06:37:25.006Z,15.38
2023-05-02T06:39:51.542Z,17.45
2023-05-02T06:42:18.321Z,13.65
2023-05-02T06:44:44.923Z,14.82
2023-05-02T06:47:11.621Z,14.23
2023-05-02T06:49:39.420Z,24.77
2023-05-02T06:52:05.907Z,23.92
2023-05-02T06:54:32.380Z,13.18
2023-05-02T06:56:59.554Z,27.38
2023-05-02T06:59:26.186Z,15.85
2023-05-02T07:01:52.648Z,28.20
2023-05-02T07:04:19.193Z,22.70
2023-05-02T07:06:47.123Z,27.92
2023-05-02T07:09:13.853Z,24.60
2023-05-02T07:11:40.425Z,22.13
2023-05-02T07:14:06.940Z,21.88
2023-05-02T07:16:33.584Z,25.98
2023-05-02T07:19:00.098Z,41.88
2023-05-02T07:21:26.553Z,24.58
2023-05-02T07:23:54.405Z,17.90
2023-05-02T07:26:20.917Z,12.52
2023-05-02T07:28:48.712Z,19.35
2023-05-02T07:31:16.990Z,16.50
2023-05-02T07:33:44.730Z,13.63
2023-05-02T07:36:11.191Z,10.57
2023-05-02T07:38:37.766Z,16.73
2023-05-02T07:41:05.642Z,11.50
2023-05-02T07:43:32.150Z,13.68
2023-05-02T07:45:58.699Z,13.48
2023-05-02T07:48:27.660Z,6.60
2023-05-02T07:50:54.446Z,10.20
2023-05-02T07:53:20.962Z,8.10
2023-05-02T07:55:47.432Z,9.38
2023-05-02T07:58:15.332Z,5.43
2023-05-02T08:00:41.819Z,8.13
2023-05-02T08:03:08.484Z,9.68
2023-05-02T08:05:35.112Z,3.78
2023-05-02T08:08:01.661Z,7.28
2023-05-02T08:10:28.287Z,11.13
2023-05-02T08:12:54.857Z,13.27
2023-05-02T08:15:22.623Z,24.17
2023-05-02T08:17:49.127Z,10.10
2023-05-02T08:20:15.669Z,16.40
2023-05-02T08:22:42.169Z,26.25
2023-05-02T08:25:09.169Z,36.33
2023-05-02T08:27:35.695Z,11.52
2023-05-02T08:30:02.391Z,28.13
2023-05-02T08:32:32.128Z,26.27
2023-05-02T08:34:58.701Z,17.63
2023-05-02T08:37:25.284Z,18.65
2023-05-02T08:39:51.740Z,18.05
2023-05-02T08:42:18.266Z,19.90
2023-05-02T08:44:44.837Z,33.95
2023-05-02T08:47:13.909Z,28.25
2023-05-02T08:49:42.587Z,20.95
2023-05-02T08:52:09.456Z,20.52
2023-05-02T08:54:37.621Z,25.90
2023-05-02T08:57:05.073Z,15.68
2023-05-02T08:59:31.534Z,23.17
2023-05-02T09:02:04.839Z,15.60
2023-05-02T09:04:32.233Z,22.10
2023-05-02T09:07:00.290Z,12.85
2023-05-02T09:09:26.993Z,8.57
2023-05-02T09:11:53.535Z,16.70
2023-05-02T09:14:20.078Z,9.88
2023-05-02T09:16:47.805Z,13.32
2023-05-02T09:19:24.109Z,11.00
2023-05-02T09:21:50.809Z,6.70
2023-05-02T09:24:20.023Z,7.93
2023-05-02T09:26:59.143Z,7.40
2023-05-02T09:29:27.706Z,5.50
2023-05-02T09:31:56.586Z,6.05
2023-05-02T09:34:23.965Z,10.13
2023-05-02T09:36:52.264Z,7.55
2023-05-02T09:39:23.030Z,3.67
2023-05-02T09:41:52.099Z,4.93
2023-05-02T09:44:20.220Z,4.32
2023-05-02T09:46:48.474Z,7.38
2023-05-02T09:49:15.513Z,8.45
2023-05-02T09:51:41.994Z,5.13
2023-05-02T09:54:08.543Z,3.10
2023-05-02T09:56:52.006Z,4.25
2023-05-02T09:59:18.514Z,4.05
2023-05-02T10:01:45.288Z,4.82
2023-05-02T10:04:13.614Z,23.98
2023-05-02T10:06:40.487Z,14.65
2023-05-02T10:09:07.714Z,11.80
2023-05-02T10:11:34.715Z,25.30
2023-05-02T10:14:02.640Z,15.57
2023-05-02T10:16:30.407Z,19.30
2023-05-02T10:19:03.025Z,17.13
2023-05-02T10:21:30.035Z,9.18
2023-05-02T10:23:57.248Z,16.55
2023-05-02T10:26:23.832Z,14.57
2023-05-02T10:28:50.449Z,16.63
2023-05-02T10:31:19.051Z,11.35
2023-05-02T10:33:49.560Z,18.98
2023-05-02T10:36:20.499Z,36.20
2023-05-02T10:38:47.340Z,16.73
2023-05-02T10:41:17.205Z,20.05
2023-05-02T10:43:47.952Z,19.23
2023-05-02T10:46:31.521Z,17.90
2023-05-02T10:49:03.775Z,26.10
2023-05-02T10:51:31.307Z,13.25
2023-05-02T10:54:22.529Z,21.35
2023-05-02T10:57:02.897Z,13.10
2023-05-02T10:59:31.004Z,19.52
2023-05-02T11:01:59.179Z,20.67
2023-05-02T11:04:25.693Z,24.85
2023-05-02T11:07:17.655Z,30.60
2023-05-02T11:09:44.182Z,19.05
2023-05-02T11:12:10.732Z,19.80
2023-05-02T11:14:45.988Z,26.38
2023-05-02T11:17:13.926Z,28.48
2023-05-02T11:20:00.326Z,22.02
2023-05-02T11:22:34.325Z,21.55
2023-05-02T11:25:01.119Z,12.95
2023-05-02T11:27:42.683Z,13.48
2023-05-02T11:30:10.323Z,14.02
2023-05-02T11:32:56.714Z,11.98
2023-05-02T11:35:26.476Z,9.95
2023-05-02T11:37:53.519Z,11.60
2023-05-02T11:40:20.203Z,12.43
2023-05-02T11:42:47.548Z,6.97
2023-05-02T11:45:14.270Z,13.65
2023-05-02T11:47:41.906Z,6.10
2023-05-02T11:50:09.020Z,7.22
2023-05-02T11:52:39.384Z,8.60
2023-05-02T11:55:07.889Z,6.63
2023-05-02T11:57:35.880Z,9.45
2023-05-02T12:00:03.603Z,8.95
2023-05-02T12:02:38.531Z,6.53
2023-05-02T12:05:06.151Z,3.55
2023-05-02T12:07:38.472Z,7.32
2023-05-02T12:10:06.182Z,5.38
2023-05-02T12:12:33.013Z,7.85
2023-05-02T12:15:04.056Z,7.60
2023-05-02T12:17:31.162Z,7.18
2023-05-02T12:19:58.071Z,3.60
2023-05-02T12:22:25.823Z,6.22
2023-05-02T12:24:53.907Z,6.85
2023-05-02T12:27:20.441Z,4.70
2023-05-02T12:29:47.949Z,3.85
2023-05-02T12:32:15.859Z,3.95
2023-05-02T12:34:42.558Z,5.45
2023-05-02T12:37:09.229Z,6.70
2023-05-02T12:39:36.770Z,3.70
2023-05-02T12:42:11.366Z,2.65
2023-05-02T12:44:38.501Z,5.85
2023-05-02T12:47:05.211Z,3.88
2023-05-02T12:49:31.825Z,3.78
2023-05-02T12:51:58.456Z,2.83
2023-05-02T12:54:24.896Z,8.82
2023-05-02T12:56:51.464Z,2.72
2023-05-02T12:59:29.257Z,3.22
2023-05-02T13:01:55.795Z,2.95
2023-05-02T13:04:22.455Z,3.15
2023-05-02T13:06:49.062Z,2.35
2023-05-02T13:09:15.701Z,2.50
2023-05-02T13:11:42.213Z,4.40
2023-05-02T13:14:08.657Z,3.17
2023-05-02T13:16:36.818Z,4.38
2023-05-02T13:19:04.047Z,5.47
2023-05-02T13:21:30.641Z,4.47
2023-05-02T13:23:57.096Z,3.17
2023-05-02T13:26:23.577Z,3.95
2023-05-02T13:28:50.105Z,4.40
2023-05-02T13:31:16.572Z,2.45
2023-05-02T13:33:44.403Z,3.83
2023-05-02T13:36:10.885Z,3.55
2023-05-02T13:38:37.370Z,2.38
2023-05-02T13:41:04.076Z,3.38
2023-05-02T13:43:30.774Z,3.05
2023-05-02T13:45:57.449Z,6.05
2023-05-02T13:48:23.998Z,4.10
2023-05-02T13:50:51.828Z,5.80
2023-05-02T13:53:18.398Z,2.33
2023-05-02T13:55:45.181Z,2.88
2023-05-02T13:58:11.629Z,9.23
2023-05-02T14:00:38.179Z,4.45
2023-05-02T14:03:04.765Z,5.22
2023-05-02T14:05:31.364Z,2.72
2023-05-02T14:07:59.174Z,5.47
2023-05-02T14:10:25.692Z,4.95
2023-05-02T14:12:52.143Z,5.70
2023-05-02T14:15:18.685Z,7.00
2023-05-02T14:17:45.208Z,8.23
2023-05-02T14:20:12.084Z,2.60
2023-05-02T14:22:38.593Z,5.35
2023-05-02T14:25:07.040Z,7.63
2023-05-02T14:27:33.585Z,7.10
2023-05-02T14:30:00.759Z,5.63
2023-05-02T14:32:27.706Z,6.82
2023-05-02T14:34:54.246Z,4.32
2023-05-02T14:37:20.755Z,5.18
2023-05-02T14:39:49.186Z,6.13
2023-05-02T14:42:18.936Z,7.22
2023-05-02T14:44:45.686Z,3.22
2023-05-02T14:47:12.214Z,7.72
2023-05-02T14:49:38.743Z,7.55
2023-05-02T14:52:05.233Z,6.28
2023-05-02T14:54:31.721Z,5.10
2023-05-02T14:56:58.388Z,4.45
2023-05-02T14:59:28.506Z,4.40
2023-05-02T15:01:55.098Z,4.68
2023-05-02T15:04:21.896Z,3.28
2023-05-02T15:06:48.597Z,2.15
2023-05-02T15:09:15.092Z,2.47
2023-05-02T15:11:41.666Z,4.38
2023-05-02T15:14:08.193Z,1.52
2023-05-02T15:16:36.003Z,1.88
2023-05-02T15:19:02.526Z,2.95
2023-05-02T15:21:29.010Z,2.88
2023-05-02T15:23:55.641Z,5.40
2023-05-02T15:26:22.100Z,2.15
2023-05-02T15:28:48.695Z,6.03
2023-05-02T15:31:15.127Z,4.00
2023-05-02T15:33:42.827Z,2.85
2023-05-02T15:36:09.840Z,5.28
2023-05-02T15:38:36.243Z,1.95
2023-05-02T15:41:02.682Z,2.15
2023-05-02T15:43:29.161Z,3.15
2023-05-02T15:45:57.797Z,3.83
2023-05-02T15:48:27.808Z,2.03
2023-05-02T15:50:56.558Z,2.83
2023-05-02T15:53:23.399Z,4.75
2023-05-02T15:55:50.646Z,5.43
2023-05-02T15:58:17.874Z,3.15
2023-05-02T16:00:45.474Z,6.60
2023-05-02T16:03:11.972Z,3.55
2023-05-02T16:05:38.803Z,2.65
2023-05-02T16:08:06.793Z,5.63
2023-05-02T16:10:33.379Z,1.75
2023-05-02T16:12:59.888Z,3.30
2023-05-02T16:15:26.332Z,1.17
2023-05-02T16:17:52.813Z,2.38
2023-05-02T16:20:19.595Z,1.83
2023-05-02T16:22:47.249Z,2.97
2023-05-02T16:25:16.508Z,4.85
2023-05-02T16:27:43.413Z,3.50
2023-05-02T16:30:11.174Z,2.28
2023-05-02T16:32:38.383Z,3.00
2023-05-02T16:35:05.531Z,2.70
2023-05-02T16:37:33.841Z,3.17
2023-05-02T16:40:01.186Z,2.15
2023-05-02T16:42:29.371Z,2.13
2023-05-02T16:44:56.512Z,1.65
2023-05-02T16:47:23.404Z,2.55
2023-05-02T16:49:53.118Z,2.05
2023-05-02T16:52:19.616Z,1.52
2023-05-02T16:54:46.086Z,1.60
2023-05-02T16:57:12.522Z,2.00
2023-05-02T16:59:40.306Z,1.70
2023-05-02T17:02:06.875Z,3.08
2023-05-02T17:04:33.462Z,2.17
2023-05-02T17:06:59.938Z,1.45
2023-05-02T17:09:26.378Z,2.15
2023-05-02T17:11:52.912Z,1.85
2023-05-02T17:14:19.440Z,2.42
2023-05-02T17:16:47.283Z,2.28
2023-05-02T17:19:13.846Z,2.33
2023-05-02T17:21:40.414Z,2.03
2023-05-02T17:24:07.084Z,1.98
2023-05-02T17:26:33.576Z,2.83
2023-05-02T17:29:00.032Z,3.75
2023-05-02T17:31:26.635Z,1.33
2023-05-02T17:33:54.468Z,2.20
2023-05-02T17:36:21.053Z,3.00
2023-05-02T17:38:47.570Z,1.85
2023-05-02T17:41:14.041Z,1.45
2023-05-02T17:43:40.739Z,3.17
2023-05-02T17:46:07.689Z,2.90
2023-05-02T17:48:34.280Z,1.98
2023-05-02T17:51:02.653Z,2.58
2023-05-02T17:53:29.118Z,1.75
2023-05-02T17:55:55.558Z,2.83
2023-05-02T17:58:22.030Z,2.15
2023-05-02T18:00:48.550Z,2.28
2023-05-02T18:03:15.108Z,2.15
2023-05-02T18:05:41.752Z,1.25
2023-05-02T18:08:09.651Z,3.13
2023-05-02T18:10:36.856Z,3.35
2023-05-02T18:13:03.367Z,1.70
2023-05-02T18:15:30.007Z,2.95
2023-05-02T18:17:56.450Z,1.20
2023-05-02T18:20:23.295Z,2.35
2023-05-02T18:22:49.752Z,3.67
2023-05-02T18:25:17.813Z,1.83
2023-05-02T18:27:44.442Z,3.40
2023-05-02T18:30:11.362Z,1.98
2023-05-02T18:32:37.962Z,2.40
2023-05-02T18:35:08.220Z,1.80
2023-05-02T18:37:34.657Z,2.20
2023-05-02T18:40:01.465Z,4.30
2023-05-02T18:42:29.265Z,2.55
2023-05-02T18:44:55.720Z,2.53
2023-05-02T18:47:22.281Z,1.80
2023-05-02T18:49:48.708Z,1.65
2023-05-02T18:52:15.178Z,2.38
2023-05-02T18:54:41.696Z,1.25
2023-05-02T18:57:08.123Z,2.85
2023-05-02T18:59:35.886Z,2.90
2023-05-02T19:02:02.423Z,1.65
2023-05-02T19:04:30.503Z,2.80
2023-05-02T19:06:57.010Z,1.35
2023-05-02T19:09:23.624Z,3.17
2023-05-02T19:11:50.214Z,1.85
2023-05-02T19:14:17.048Z,1.08
2023-05-02T19:16:45.149Z,1.10
2023-05-02T19:19:12.268Z,2.80
2023-05-02T19:21:38.831Z,1.40
2023-05-02T19:24:05.798Z,2.35
2023-05-02T19:26:32.329Z,1.48
2023-05-02T19:28:59.308Z,1.27
2023-05-02T19:31:26.303Z,1.42
2023-05-02T19:33:54.806Z,1.67
2023-05-02T19:36:22.596Z,1.10
2023-05-02T19:38:50.425Z,1.40
2023-05-02T19:41:17.865Z,1.33
2023-05-02T19:43:45.359Z,1.23
2023-05-02T19:46:12.271Z,1.17
2023-05-02T19:48:39.485Z,2.65
2023-05-02T19:51:08.325Z,1.48
2023-05-02T19:53:36.612Z,1.42
2023-05-02T19:56:05.214Z,2.17
2023-05-02T19:58:32.478Z,2.40
2023-05-02T20:00:59.464Z,1.30
2023-05-02T20:03:26.650Z,1.38
2023-05-02T20:05:53.806Z,1.60
2023-05-02T20:08:23.425Z,1.92
2023-05-02T20:10:50.493Z,2.15
2023-05-02T20:13:17.374Z,1.38
2023-05-02T20:15:44.596Z,1.67
2023-05-02T20:18:11.490Z,2.78
2023-05-02T20:20:38.099Z,1.45
2023-05-02T20:23:04.910Z,2.22
2023-05-02T20:25:33.229Z,2.55
2023-05-02T20:28:00.040Z,1.02
2023-05-02T20:30:26.544Z,1.60
2023-05-02T20:32:53.288Z,2.22
2023-05-02T20:35:20.105Z,2.03
2023-05-02T20:37:46.603Z,1.98
2023-05-02T20:40:13.222Z,1.85
2023-05-02T20:42:41.183Z,2.17
2023-05-02T20:45:08.770Z,2.08
2023-05-02T20:47:35.422Z,1.45
2023-05-02T20:50:02.366Z,2.38
2023-05-02T20:52:29.107Z,1.67
2023-05-02T20:54:56.108Z,1.58
2023-05-02T20:57:22.864Z,1.70
2023-05-02T20:59:50.598Z,1.90
2023-05-02T21:02:17.060Z,1.85
2023-05-02T21:04:43.599Z,3.30
2023-05-02T21:07:10.105Z,1.65
2023-05-02T21:09:36.571Z,2.08
2023-05-02T21:12:03.243Z,1.90
2023-05-02T21:14:29.737Z,1.25
2023-05-02T21:16:57.442Z,2.08
2023-05-02T21:19:24.028Z,2.28
2023-05-02T21:21:50.506Z,2.15
2023-05-02T21:24:17.020Z,2.00
2023-05-02T21:26:43.567Z,1.85
2023-05-02T21:29:10.168Z,1.88
2023-05-02T21:31:36.742Z,2.42
2023-05-02T21:34:04.653Z,2.17
2023-05-02T21:36:31.131Z,1.80
2023-05-02T21:38:57.606Z,1.95
2023-05-02T21:41:24.019Z,1.17
2023-05-02T21:43:50.601Z,2.10
2023-05-02T21:46:17.170Z,2.20
2023-05-02T21:48:43.620Z,2.45
2023-05-02T21:51:11.852Z,1.30
2023-05-02T21:53:38.359Z,2.88
2023-05-02T21:56:06.050Z,1.60
2023-05-02T21:58:32.816Z,1.27
2023-05-02T22:00:59.536Z,1.25
2023-05-02T22:03:26.138Z,1.27
2023-05-02T22:05:52.920Z,1.83
2023-05-02T22:08:21.042Z,1.83
2023-05-02T22:10:47.534Z,1.40
2023-05-02T22:13:15.187Z,1.80
2023-05-02T22:15:41.832Z,1.95
2023-05-02T22:18:08.446Z,1.77
2023-05-02T22:20:34.952Z,1.38
2023-05-02T22:23:01.509Z,1.63
2023-05-02T22:25:29.363Z,1.98
2023-05-02T22:27:55.796Z,2.15
2023-05-02T22:30:22.586Z,1.42
2023-05-02T22:32:49.043Z,2.25
2023-05-02T22:35:15.573Z,2.30
2023-05-02T22:37:42.019Z,1.70
2023-05-02T22:40:09.324Z,1.52
2023-05-02T22:42:37.058Z,1.45
2023-05-02T22:45:04.021Z,1.90
2023-05-02T22:47:30.527Z,1.80
2023-05-02T22:49:57.129Z,2.47
2023-05-02T22:52:23.640Z,1.80
2023-05-02T22:54:50.173Z,1.30
2023-05-02T22:57:16.641Z,1.80
2023-05-02T22:59:44.384Z,2.17
2023-05-02T23:02:11.057Z,2.08
2023-05-02T23:04:37.538Z,1.52
2023-05-02T23:07:04.020Z,1.52
2023-05-02T23:09:30.515Z,1.75
2023-05-02T23:11:56.981Z,1.70
2023-05-02T23:14:23.474Z,1.77
2023-05-02T23:16:51.969Z,1.50
2023-05-02T23:19:18.411Z,1.50
2023-05-02T23:21:44.905Z,2.10
2023-05-02T23:24:11.437Z,1.73
2023-05-02T23:26:37.992Z,2.83
2023-05-02T23:29:04.532Z,1.70
2023-05-02T23:31:31.130Z,2.05
2023-05-02T23:34:00.208Z,1.05
2023-05-02T23:36:26.794Z,1.85
2023-05-02T23:38:53.262Z,1.55
2023-05-02T23:41:19.719Z,2.03
2023-05-02T23:43:46.180Z,2.45
2023-05-02T23:46:12.664Z,2.10
2023-05-02T23:48:39.157Z,3.10
2023-05-02T23:51:07.008Z,2.25
2023-05-02T23:53:33.460Z,1.65
2023-05-02T23:55:59.923Z,1.88
2023-05-02T23:58:26.518Z,1.55
